Dallas/Fort Worth (DFW/KDFW)

Information

Location
Dallas/Fort Worth, TX
Local Time
15:32 / 3:32 pm
GMT Time
20:32 / 8:32 pm
No FAA reported delays
METAR KDFW 231953Z 26007KT 10SM SCT250 28/04 A3005 RMK AO2 SLP170 T02780044
TAF KDFW 231720Z 2318/2424 24008KT P6SM FEW250 FM240000 34014KT P6SM FEW250 FM241700 33019G29KT P6SM SKC